sensor_id;sensor_type;location;lat;lon;timestamp;pressure;altitude;pressure_sealevel;temperature;humidity
41800;BME280;27468;47.460;19.034;2023-04-15T00:02:00;99298.88;;;6.83;88.45
41800;BME280;27468;47.460;19.034;2023-04-15T00:04:26;99332.53;;;7.00;88.66
41800;BME280;27468;47.460;19.034;2023-04-15T00:06:52;99378.97;;;7.34;88.54
41800;BME280;27468;47.460;19.034;2023-04-15T00:09:19;99370.59;;;7.18;88.03
41800;BME280;27468;47.460;19.034;2023-04-15T00:11:45;99323.94;;;6.93;87.86
41800;BME280;27468;47.460;19.034;2023-04-15T00:14:14;99383.69;;;7.18;87.87
41800;BME280;27468;47.460;19.034;2023-04-15T00:16:39;99370.47;;;7.24;88.06
41800;BME280;27468;47.460;19.034;2023-04-15T00:19:05;99313.28;;;7.03;87.87
41800;BME280;27468;47.460;19.034;2023-04-15T00:21:30;99407.31;;;7.55;88.00
41800;BME280;27468;47.460;19.034;2023-04-15T00:23:56;99316.50;;;7.14;87.77
41800;BME280;27468;47.460;19.034;2023-04-15T00:26:22;99378.50;;;7.53;87.86
41800;BME280;27468;47.460;19.034;2023-04-15T00:28:47;99362.97;;;7.46;87.93
41800;BME280;27468;47.460;19.034;2023-04-15T00:31:12;99318.91;;;7.24;87.90
41800;BME280;27468;47.460;19.034;2023-04-15T00:33:38;99324.06;;;7.27;87.82
41800;BME280;27468;47.460;19.034;2023-04-15T00:36:05;99380.81;;;7.67;87.95
41800;BME280;27468;47.460;19.034;2023-04-15T00:38:31;99330.91;;;7.35;87.59
41800;BME280;27468;47.460;19.034;2023-04-15T00:40:56;99320.47;;;7.32;87.57
41800;BME280;27468;47.460;19.034;2023-04-15T00:43:22;99316.19;;;7.27;87.51
41800;BME280;27468;47.460;19.034;2023-04-15T00:45:48;99359.25;;;7.54;87.34
41800;BME280;27468;47.460;19.034;2023-04-15T00:48:16;99392.09;;;7.71;87.53
41800;BME280;27468;47.460;19.034;2023-04-15T00:50:42;99312.53;;;7.35;87.46
41800;BME280;27468;47.460;19.034;2023-04-15T00:53:07;99347.63;;;7.65;87.55
41800;BME280;27468;47.460;19.034;2023-04-15T00:55:32;99318.34;;;7.47;87.36
41800;BME280;27468;47.460;19.034;2023-04-15T00:57:58;99333.91;;;7.53;87.35
41800;BME280;27468;47.460;19.034;2023-04-15T01:00:24;99285.78;;;7.20;87.21
41800;BME280;27468;47.460;19.034;2023-04-15T01:02:49;99361.63;;;7.65;87.39
41800;BME280;27468;47.460;19.034;2023-04-15T01:05:15;99361.47;;;7.71;87.15
41800;BME280;27468;47.460;19.034;2023-04-15T01:07:42;99318.31;;;7.49;87.37
41800;BME280;27468;47.460;19.034;2023-04-15T01:10:08;99331.28;;;7.53;86.74
41800;BME280;27468;47.460;19.034;2023-04-15T01:12:34;99335.84;;;7.47;86.50
41800;BME280;27468;47.460;19.034;2023-04-15T01:15:00;99355.50;;;7.65;86.81
41800;BME280;27468;47.460;19.034;2023-04-15T01:17:26;99293.41;;;7.31;87.22
41800;BME280;27468;47.460;19.034;2023-04-15T01:19:55;99317.31;;;7.53;86.85
41800;BME280;27468;47.460;19.034;2023-04-15T01:22:20;99348.97;;;7.81;86.85
41800;BME280;27468;47.460;19.034;2023-04-15T01:25:00;99312.66;;;7.64;86.75
41800;BME280;27468;47.460;19.034;2023-04-15T01:27:30;99282.50;;;7.48;86.55
41800;BME280;27468;47.460;19.034;2023-04-15T01:29:56;99351.47;;;7.87;86.37
41800;BME280;27468;47.460;19.034;2023-04-15T01:32:21;99349.56;;;7.92;86.60
41800;BME280;27468;47.460;19.034;2023-04-15T01:34:47;99376.19;;;8.11;86.40
41800;BME280;27468;47.460;19.034;2023-04-15T01:37:13;99370.22;;;8.06;86.44
41800;BME280;27468;47.460;19.034;2023-04-15T01:39:38;99287.34;;;7.63;86.47
41800;BME280;27468;47.460;19.034;2023-04-15T01:42:04;99338.13;;;7.94;86.62
41800;BME280;27468;47.460;19.034;2023-04-15T01:44:29;99375.09;;;8.19;86.53
41800;BME280;27468;47.460;19.034;2023-04-15T01:46:55;99338.88;;;8.00;86.37
41800;BME280;27468;47.460;19.034;2023-04-15T01:49:20;99296.47;;;7.82;86.43
41800;BME280;27468;47.460;19.034;2023-04-15T01:51:46;99358.47;;;8.19;86.30
41800;BME280;27468;47.460;19.034;2023-04-15T01:54:12;99306.56;;;7.98;86.14
41800;BME280;27468;47.460;19.034;2023-04-15T01:56:37;99318.88;;;7.95;86.34
41800;BME280;27468;47.460;19.034;2023-04-15T01:59:03;99359.34;;;8.19;86.15
41800;BME280;27468;47.460;19.034;2023-04-15T02:01:28;99361.03;;;8.22;85.95
41800;BME280;27468;47.460;19.034;2023-04-15T02:03:53;99345.59;;;8.10;85.87
41800;BME280;27468;47.460;19.034;2023-04-15T02:06:19;99371.31;;;8.29;86.02
41800;BME280;27468;47.460;19.034;2023-04-15T02:08:45;99302.19;;;7.98;85.99
41800;BME280;27468;47.460;19.034;2023-04-15T02:11:10;99389.66;;;8.31;85.93
41800;BME280;27468;47.460;19.034;2023-04-15T02:13:36;99333.47;;;8.06;86.17
41800;BME280;27468;47.460;19.034;2023-04-15T02:16:02;99309.50;;;7.85;86.91
41800;BME280;27468;47.460;19.034;2023-04-15T02:18:27;99367.25;;;8.18;87.07
41800;BME280;27468;47.460;19.034;2023-04-15T02:20:53;99335.25;;;8.05;87.01
41800;BME280;27468;47.460;19.034;2023-04-15T02:23:18;99368.94;;;8.20;87.21
41800;BME280;27468;47.460;19.034;2023-04-15T02:25:44;99367.28;;;8.16;87.71
41800;BME280;27468;47.460;19.034;2023-04-15T02:28:09;99364.66;;;8.16;87.94
41800;BME280;27468;47.460;19.034;2023-04-15T02:30:35;99348.91;;;8.16;87.91
41800;BME280;27468;47.460;19.034;2023-04-15T02:33:01;99392.94;;;8.41;87.40
41800;BME280;27468;47.460;19.034;2023-04-15T02:35:26;99396.34;;;8.44;87.36
41800;BME280;27468;47.460;19.034;2023-04-15T02:37:52;99391.19;;;8.41;87.35
41800;BME280;27468;47.460;19.034;2023-04-15T02:40:17;99378.09;;;8.40;87.22
41800;BME280;27468;47.460;19.034;2023-04-15T02:42:43;99374.72;;;8.35;87.08
41800;BME280;27468;47.460;19.034;2023-04-15T02:45:09;99360.72;;;8.34;86.94
41800;BME280;27468;47.460;19.034;2023-04-15T02:47:36;99347.84;;;8.23;86.98
41800;BME280;27468;47.460;19.034;2023-04-15T02:50:11;99369.22;;;8.44;86.99
41800;BME280;27468;47.460;19.034;2023-04-15T02:52:39;99320.78;;;8.21;86.35
41800;BME280;27468;47.460;19.034;2023-04-15T02:55:05;99359.63;;;8.43;86.44
41800;BME280;27468;47.460;19.034;2023-04-15T02:57:32;99350.75;;;8.47;86.31
41800;BME280;27468;47.460;19.034;2023-04-15T02:59:59;99345.63;;;8.42;86.20
41800;BME280;27468;47.460;19.034;2023-04-15T03:02:24;99384.66;;;8.56;86.00
41800;BME280;27468;47.460;19.034;2023-04-15T03:04:50;99359.47;;;8.49;85.56
41800;BME280;27468;47.460;19.034;2023-04-15T03:07:17;99389.09;;;8.54;85.74
41800;BME280;27468;47.460;19.034;2023-04-15T03:09:42;99307.06;;;8.10;85.27
41800;BME280;27468;47.460;19.034;2023-04-15T03:12:08;99358.72;;;8.44;85.58
41800;BME280;27468;47.460;19.034;2023-04-15T03:14:34;99369.94;;;8.50;85.74
41800;BME280;27468;47.460;19.034;2023-04-15T03:16:59;99338.75;;;8.38;85.15
41800;BME280;27468;47.460;19.034;2023-04-15T03:19:25;99378.59;;;8.54;85.54
41800;BME280;27468;47.460;19.034;2023-04-15T03:21:50;99303.22;;;8.23;85.33
41800;BME280;27468;47.460;19.034;2023-04-15T03:24:16;99340.50;;;8.38;85.49
41800;BME280;27468;47.460;19.034;2023-04-15T03:26:42;99314.66;;;8.21;85.28
41800;BME280;27468;47.460;19.034;2023-04-15T03:29:07;99304.16;;;8.21;85.34
41800;BME280;27468;47.460;19.034;2023-04-15T03:31:33;99377.63;;;8.56;85.54
41800;BME280;27468;47.460;19.034;2023-04-15T03:33:58;99315.44;;;8.24;85.49
41800;BME280;27468;47.460;19.034;2023-04-15T03:36:24;99332.75;;;8.33;85.32
41800;BME280;27468;47.460;19.034;2023-04-15T03:38:50;99373.16;;;8.60;85.37
41800;BME280;27468;47.460;19.034;2023-04-15T03:41:15;99316.94;;;8.35;85.14
41800;BME280;27468;47.460;19.034;2023-04-15T03:43:40;99376.78;;;8.56;85.33
41800;BME280;27468;47.460;19.034;2023-04-15T03:46:06;99311.25;;;8.17;85.48
41800;BME280;27468;47.460;19.034;2023-04-15T03:48:31;99353.44;;;8.45;85.15
41800;BME280;27468;47.460;19.034;2023-04-15T03:50:57;99350.03;;;8.42;85.08
41800;BME280;27468;47.460;19.034;2023-04-15T03:53:22;99344.94;;;8.36;85.71
41800;BME280;27468;47.460;19.034;2023-04-15T03:55:47;99321.59;;;8.23;85.38
41800;BME280;27468;47.460;19.034;2023-04-15T03:58:13;99352.00;;;8.34;85.74
41800;BME280;27468;47.460;19.034;2023-04-15T04:00:39;99307.97;;;8.09;86.04
41800;BME280;27468;47.460;19.034;2023-04-15T04:03:05;99339.03;;;8.26;85.98
41800;BME280;27468;47.460;19.034;2023-04-15T04:05:31;99309.75;;;8.09;85.89
41800;BME280;27468;47.460;19.034;2023-04-15T04:07:56;99315.78;;;8.12;85.62
41800;BME280;27468;47.460;19.034;2023-04-15T04:10:22;99347.66;;;8.33;85.76
41800;BME280;27468;47.460;19.034;2023-04-15T04:12:47;99349.38;;;8.34;85.83
41800;BME280;27468;47.460;19.034;2023-04-15T04:15:12;99316.56;;;8.16;85.71
41800;BME280;27468;47.460;19.034;2023-04-15T04:17:38;99363.81;;;8.50;85.96
41800;BME280;27468;47.460;19.034;2023-04-15T04:20:03;99350.75;;;8.47;85.67
41800;BME280;27468;47.460;19.034;2023-04-15T04:22:29;99306.66;;;8.25;85.83
41800;BME280;27468;47.460;19.034;2023-04-15T04:24:55;99347.44;;;8.40;86.09
41800;BME280;27468;47.460;19.034;2023-04-15T04:27:21;99369.75;;;8.56;86.02
41800;BME280;27468;47.460;19.034;2023-04-15T04:29:46;99324.88;;;8.33;86.04
41800;BME280;27468;47.460;19.034;2023-04-15T04:32:13;99349.66;;;8.55;85.88
41800;BME280;27468;47.460;19.034;2023-04-15T04:34:39;99291.94;;;8.20;86.06
41800;BME280;27468;47.460;19.034;2023-04-15T04:37:05;99332.53;;;8.41;86.09
41800;BME280;27468;47.460;19.034;2023-04-15T04:39:31;99369.72;;;8.58;86.52
41800;BME280;27468;47.460;19.034;2023-04-15T04:41:56;99363.44;;;8.64;86.35
41800;BME280;27468;47.460;19.034;2023-04-15T04:44:22;99346.16;;;8.55;86.49
41800;BME280;27468;47.460;19.034;2023-04-15T04:46:47;99277.03;;;8.20;86.21
41800;BME280;27468;47.460;19.034;2023-04-15T04:49:13;99313.03;;;8.49;86.04
41800;BME280;27468;47.460;19.034;2023-04-15T04:51:38;99369.78;;;8.86;86.09
41800;BME280;27468;47.460;19.034;2023-04-15T04:54:04;99334.19;;;8.74;86.13
41800;BME280;27468;47.460;19.034;2023-04-15T04:56:29;99385.47;;;9.18;85.99
41800;BME280;27468;47.460;19.034;2023-04-15T04:58:54;99369.69;;;9.18;85.49
41800;BME280;27468;47.460;19.034;2023-04-15T05:01:20;99349.59;;;9.16;85.38
41800;BME280;27468;47.460;19.034;2023-04-15T05:03:46;99311.25;;;9.09;84.89
41800;BME280;27468;47.460;19.034;2023-04-15T05:06:11;99309.75;;;9.28;85.09
41800;BME280;27468;47.460;19.034;2023-04-15T05:08:36;99365.47;;;9.69;84.68
41800;BME280;27468;47.460;19.034;2023-04-15T05:11:02;99301.22;;;9.48;84.21
41800;BME280;27468;47.460;19.034;2023-04-15T05:13:28;99354.22;;;9.90;83.40
41800;BME280;27468;47.460;19.034;2023-04-15T05:15:54;99346.09;;;9.96;83.24
41800;BME280;27468;47.460;19.034;2023-04-15T05:18:20;99311.72;;;9.76;80.43
41800;BME280;27468;47.460;19.034;2023-04-15T05:20:45;99282.56;;;9.55;81.31
41800;BME280;27468;47.460;19.034;2023-04-15T05:23:11;99365.84;;;10.09;80.65
41800;BME280;27468;47.460;19.034;2023-04-15T05:25:36;99387.53;;;10.17;80.34
41800;BME280;27468;47.460;19.034;2023-04-15T05:28:01;99326.09;;;9.90;80.58
41800;BME280;27468;47.460;19.034;2023-04-15T05:30:27;99347.56;;;10.05;79.76
41800;BME280;27468;47.460;19.034;2023-04-15T05:32:52;99360.69;;;10.06;79.58
41800;BME280;27468;47.460;19.034;2023-04-15T05:35:18;99392.34;;;10.31;79.65
41800;BME280;27468;47.460;19.034;2023-04-15T05:37:44;99296.28;;;9.90;79.44
41800;BME280;27468;47.460;19.034;2023-04-15T05:40:10;99379.41;;;10.25;79.18
41800;BME280;27468;47.460;19.034;2023-04-15T05:42:35;99371.38;;;10.28;79.55
41800;BME280;27468;47.460;19.034;2023-04-15T05:45:01;99369.41;;;10.35;79.50
41800;BME280;27468;47.460;19.034;2023-04-15T05:47:29;99316.50;;;10.14;79.69
41800;BME280;27468;47.460;19.034;2023-04-15T05:49:55;99370.56;;;10.51;79.32
41800;BME280;27468;47.460;19.034;2023-04-15T05:52:20;99367.06;;;10.50;79.34
41800;BME280;27468;47.460;19.034;2023-04-15T05:54:46;99352.63;;;10.37;79.12
41800;BME280;27468;47.460;19.034;2023-04-15T05:57:11;99400.72;;;10.67;78.86
41800;BME280;27468;47.460;19.034;2023-04-15T05:59:36;99381.97;;;10.51;78.66
41800;BME280;27468;47.460;19.034;2023-04-15T06:02:03;99374.97;;;10.50;79.03
41800;BME280;27468;47.460;19.034;2023-04-15T06:04:28;99409.38;;;10.71;78.77
41800;BME280;27468;47.460;19.034;2023-04-15T06:06:54;99390.94;;;10.71;78.81
41800;BME280;27468;47.460;19.034;2023-04-15T06:09:19;99397.59;;;10.81;78.70
41800;BME280;27468;47.460;19.034;2023-04-15T06:11:45;99342.03;;;10.62;78.55
41800;BME280;27468;47.460;19.034;2023-04-15T06:14:10;99398.81;;;10.96;77.65
41800;BME280;27468;47.460;19.034;2023-04-15T06:16:35;99375.59;;;10.82;77.42
41800;BME280;27468;47.460;19.034;2023-04-15T06:19:02;99391.41;;;10.82;77.25
41800;BME280;27468;47.460;19.034;2023-04-15T06:21:27;99349.91;;;10.64;77.21
41800;BME280;27468;47.460;19.034;2023-04-15T06:23:53;99409.81;;;11.07;77.60
41800;BME280;27468;47.460;19.034;2023-04-15T06:26:20;99384.19;;;10.87;77.92
41800;BME280;27468;47.460;19.034;2023-04-15T06:28:46;99404.03;;;10.97;77.32
41800;BME280;27468;47.460;19.034;2023-04-15T06:31:11;99409.75;;;11.08;77.59
41800;BME280;27468;47.460;19.034;2023-04-15T06:33:37;99376.00;;;10.95;77.71
41800;BME280;27468;47.460;19.034;2023-04-15T06:36:03;99358.47;;;10.94;77.36
41800;BME280;27468;47.460;19.034;2023-04-15T06:38:29;99415.94;;;11.31;77.26
41800;BME280;27468;47.460;19.034;2023-04-15T06:40:54;99406.94;;;11.13;76.52
41800;BME280;27468;47.460;19.034;2023-04-15T06:43:20;99431.72;;;11.32;76.05
41800;BME280;27468;47.460;19.034;2023-04-15T06:45:45;99422.88;;;11.10;75.94
41800;BME280;27468;47.460;19.034;2023-04-15T06:48:11;99387.94;;;11.03;76.55
41800;BME280;27468;47.460;19.034;2023-04-15T06:50:36;99351.91;;;10.80;76.78
41800;BME280;27468;47.460;19.034;2023-04-15T06:53:02;99429.41;;;11.23;76.42
41800;BME280;27468;47.460;19.034;2023-04-15T06:55:27;99379.34;;;10.98;75.76
41800;BME280;27468;47.460;19.034;2023-04-15T06:57:53;99384.34;;;11.06;75.96
41800;BME280;27468;47.460;19.034;2023-04-15T07:00:18;99418.56;;;11.31;75.54
41800;BME280;27468;47.460;19.034;2023-04-15T07:02:44;99377.00;;;11.14;73.74
41800;BME280;27468;47.460;19.034;2023-04-15T07:05:10;99437.09;;;11.52;74.33
41800;BME280;27468;47.460;19.034;2023-04-15T07:07:36;99372.00;;;11.30;74.31
41800;BME280;27468;47.460;19.034;2023-04-15T07:10:02;99401.13;;;11.50;73.92
41800;BME280;27468;47.460;19.034;2023-04-15T07:12:28;99387.53;;;11.37;73.91
41800;BME280;27468;47.460;19.034;2023-04-15T07:14:53;99370.84;;;11.37;73.69
41800;BME280;27468;47.460;19.034;2023-04-15T07:17:19;99407.78;;;11.58;73.22
41800;BME280;27468;47.460;19.034;2023-04-15T07:19:44;99414.97;;;11.78;73.93
41800;BME280;27468;47.460;19.034;2023-04-15T07:22:09;99390.59;;;11.70;74.04
41800;BME280;27468;47.460;19.034;2023-04-15T07:24:35;99406.78;;;11.84;74.22
41800;BME280;27468;47.460;19.034;2023-04-15T07:27:00;99384.88;;;11.82;72.64
41800;BME280;27468;47.460;19.034;2023-04-15T07:29:26;99365.28;;;11.88;72.74
41800;BME280;27468;47.460;19.034;2023-04-15T07:31:51;99429.72;;;12.26;72.54
41800;BME280;27468;47.460;19.034;2023-04-15T07:34:18;99432.25;;;12.49;72.15
41800;BME280;27468;47.460;19.034;2023-04-15T07:36:45;99385.25;;;12.36;70.67
41800;BME280;27468;47.460;19.034;2023-04-15T07:39:10;99412.94;;;12.47;69.40
41800;BME280;27468;47.460;19.034;2023-04-15T07:41:36;99381.56;;;12.40;68.86
41800;BME280;27468;47.460;19.034;2023-04-15T07:44:01;99379.13;;;12.55;69.04
41800;BME280;27468;47.460;19.034;2023-04-15T07:46:27;99364.56;;;12.66;68.00
41800;BME280;27468;47.460;19.034;2023-04-15T07:48:52;99353.34;;;12.61;65.83
41800;BME280;27468;47.460;19.034;2023-04-15T07:51:19;99426.53;;;13.19;64.98
41800;BME280;27468;47.460;19.034;2023-04-15T07:53:46;99387.13;;;12.93;63.73
41800;BME280;27468;47.460;19.034;2023-04-15T07:56:11;99429.88;;;13.23;63.64
41800;BME280;27468;47.460;19.034;2023-04-15T07:58:37;99354.84;;;12.85;63.38
41800;BME280;27468;47.460;19.034;2023-04-15T08:01:03;99439.47;;;13.26;61.22
41800;BME280;27468;47.460;19.034;2023-04-15T08:03:29;99430.66;;;13.44;63.16
41800;BME280;27468;47.460;19.034;2023-04-15T08:05:54;99416.78;;;13.58;62.93
41800;BME280;27468;47.460;19.034;2023-04-15T08:08:19;99431.22;;;13.69;62.20
41800;BME280;27468;47.460;19.034;2023-04-15T08:10:45;99392.94;;;13.58;61.42
41800;BME280;27468;47.460;19.034;2023-04-15T08:13:11;99419.41;;;13.76;59.88
41800;BME280;27468;47.460;19.034;2023-04-15T08:15:36;99395.44;;;13.79;59.37
41800;BME280;27468;47.460;19.034;2023-04-15T08:18:02;99397.72;;;14.04;59.79
41800;BME280;27468;47.460;19.034;2023-04-15T08:20:28;99402.72;;;14.28;59.71
41800;BME280;27468;47.460;19.034;2023-04-15T08:22:54;99423.41;;;14.38;58.78
41800;BME280;27468;47.460;19.034;2023-04-15T08:25:19;99375.97;;;14.15;57.24
41800;BME280;27468;47.460;19.034;2023-04-15T08:27:45;99444.69;;;14.54;56.87
41800;BME280;27468;47.460;19.034;2023-04-15T08:30:10;99374.50;;;14.09;57.43
41800;BME280;27468;47.460;19.034;2023-04-15T08:32:36;99419.50;;;14.28;57.64
41800;BME280;27468;47.460;19.034;2023-04-15T08:35:02;99418.16;;;14.19;56.25
41800;BME280;27468;47.460;19.034;2023-04-15T08:37:27;99458.63;;;14.23;55.26
41800;BME280;27468;47.460;19.034;2023-04-15T08:39:53;99407.41;;;13.86;55.25
41800;BME280;27468;47.460;19.034;2023-04-15T08:42:30;99438.53;;;14.00;54.50
41800;BME280;27468;47.460;19.034;2023-04-15T08:44:58;99400.25;;;13.88;55.28
41800;BME280;27468;47.460;19.034;2023-04-15T08:47:25;99423.84;;;14.12;55.10
41800;BME280;27468;47.460;19.034;2023-04-15T08:49:54;99432.69;;;14.30;54.30
41800;BME280;27468;47.460;19.034;2023-04-15T08:52:21;99382.13;;;14.15;53.86
41800;BME280;27468;47.460;19.034;2023-04-15T08:54:47;99438.25;;;14.42;53.66
41800;BME280;27468;47.460;19.034;2023-04-15T08:57:13;99373.50;;;14.29;53.63
41800;BME280;27468;47.460;19.034;2023-04-15T08:59:40;99357.88;;;14.40;54.09
41800;BME280;27468;47.460;19.034;2023-04-15T09:02:07;99452.88;;;15.01;53.08
41800;BME280;27468;47.460;19.034;2023-04-15T09:04:33;99454.16;;;15.10;52.60
41800;BME280;27468;47.460;19.034;2023-04-15T09:06:58;99446.88;;;14.98;51.20
41800;BME280;27468;47.460;19.034;2023-04-15T09:09:24;99410.19;;;14.89;51.65
41800;BME280;27468;47.460;19.034;2023-04-15T09:11:49;99454.38;;;15.23;52.06
41800;BME280;27468;47.460;19.034;2023-04-15T09:14:15;99455.75;;;15.30;51.24
41800;BME280;27468;47.460;19.034;2023-04-15T09:17:01;99441.34;;;15.18;50.60
41800;BME280;27468;47.460;19.034;2023-04-15T09:19:29;99437.88;;;15.00;50.60
41800;BME280;27468;47.460;19.034;2023-04-15T09:21:57;99422.00;;;14.83;51.01
41800;BME280;27468;47.460;19.034;2023-04-15T09:24:23;99465.63;;;15.10;51.89
41800;BME280;27468;47.460;19.034;2023-04-15T09:26:53;99435.56;;;14.94;52.51
41800;BME280;27468;47.460;19.034;2023-04-15T09:29:25;99441.81;;;15.09;52.94
41800;BME280;27468;47.460;19.034;2023-04-15T09:31:51;99467.41;;;15.27;52.30
41800;BME280;27468;47.460;19.034;2023-04-15T09:34:17;99389.59;;;14.76;52.02
41800;BME280;27468;47.460;19.034;2023-04-15T09:36:56;99468.81;;;15.01;52.43
41800;BME280;27468;47.460;19.034;2023-04-15T09:39:22;99452.19;;;14.98;52.56
41800;BME280;27468;47.460;19.034;2023-04-15T09:42:04;99465.06;;;15.21;52.64
41800;BME280;27468;47.460;19.034;2023-04-15T09:44:29;99460.47;;;15.25;52.19
41800;BME280;27468;47.460;19.034;2023-04-15T09:46:55;99450.72;;;15.08;53.00
41800;BME280;27468;47.460;19.034;2023-04-15T09:49:20;99460.66;;;15.04;52.49
41800;BME280;27468;47.460;19.034;2023-04-15T09:51:46;99430.03;;;14.81;52.37
41800;BME280;27468;47.460;19.034;2023-04-15T09:54:11;99461.72;;;14.84;52.73
41800;BME280;27468;47.460;19.034;2023-04-15T09:56:38;99470.59;;;15.01;52.27
41800;BME280;27468;47.460;19.034;2023-04-15T09:59:09;99467.84;;;15.02;51.56
41800;BME280;27468;47.460;19.034;2023-04-15T10:01:35;99459.47;;;15.10;51.50
41800;BME280;27468;47.460;19.034;2023-04-15T10:04:04;99455.41;;;15.03;51.22
41800;BME280;27468;47.460;19.034;2023-04-15T10:06:30;99477.97;;;15.11;51.35
41800;BME280;27468;47.460;19.034;2023-04-15T10:08:57;99481.97;;;15.03;51.23
41800;BME280;27468;47.460;19.034;2023-04-15T10:11:23;99423.25;;;14.76;51.53
41800;BME280;27468;47.460;19.034;2023-04-15T10:13:50;99452.75;;;15.03;51.33
41800;BME280;27468;47.460;19.034;2023-04-15T10:16:19;99447.56;;;15.01;51.68
41800;BME280;27468;47.460;19.034;2023-04-15T10:18:49;99481.16;;;15.18;52.38
41800;BME280;27468;47.460;19.034;2023-04-15T10:21:16;99485.41;;;15.05;53.32
41800;BME280;27468;47.460;19.034;2023-04-15T10:23:44;99460.84;;;15.01;53.10
41800;BME280;27468;47.460;19.034;2023-04-15T10:26:10;99483.75;;;15.19;52.24
41800;BME280;27468;47.460;19.034;2023-04-15T10:28:37;99440.81;;;15.11;52.41
41800;BME280;27468;47.460;19.034;2023-04-15T10:31:03;99498.38;;;15.44;51.16
41800;BME280;27468;47.460;19.034;2023-04-15T10:33:30;99476.91;;;15.31;50.62
41800;BME280;27468;47.460;19.034;2023-04-15T10:35:56;99477.22;;;15.42;50.63
41800;BME280;27468;47.460;19.034;2023-04-15T10:38:43;99491.75;;;15.68;50.39
41800;BME280;27468;47.460;19.034;2023-04-15T10:41:20;99501.25;;;15.57;51.04
41800;BME280;27468;47.460;19.034;2023-04-15T10:43:50;99465.94;;;15.22;52.07
41800;BME280;27468;47.460;19.034;2023-04-15T10:46:21;99495.03;;;15.40;52.79
41800;BME280;27468;47.460;19.034;2023-04-15T10:48:52;99493.16;;;15.42;53.22
41800;BME280;27468;47.460;19.034;2023-04-15T10:51:29;99498.66;;;15.55;54.45
41800;BME280;27468;47.460;19.034;2023-04-15T10:53:58;99436.03;;;15.18;54.32
41800;BME280;27468;47.460;19.034;2023-04-15T10:56:24;99503.75;;;15.60;54.24
41800;BME280;27468;47.460;19.034;2023-04-15T10:58:50;99472.38;;;15.33;54.10
41800;BME280;27468;47.460;19.034;2023-04-15T11:01:16;99462.50;;;15.19;53.63
41800;BME280;27468;47.460;19.034;2023-04-15T11:03:43;99519.66;;;15.27;53.20
41800;BME280;27468;47.460;19.034;2023-04-15T11:06:09;99489.53;;;15.10;52.32
41800;BME280;27468;47.460;19.034;2023-04-15T11:08:58;99524.34;;;15.22;51.76
41800;BME280;27468;47.460;19.034;2023-04-15T11:14:32;99456.97;;;15.07;54.35
41800;BME280;27468;47.460;19.034;2023-04-15T11:16:58;99508.06;;;15.45;54.46
41800;BME280;27468;47.460;19.034;2023-04-15T11:19:24;99504.34;;;15.65;54.74
41800;BME280;27468;47.460;19.034;2023-04-15T11:21:50;99479.41;;;15.67;53.18
41800;BME280;27468;47.460;19.034;2023-04-15T11:24:25;99454.59;;;15.51;52.44
41800;BME280;27468;47.460;19.034;2023-04-15T11:26:56;99442.00;;;15.55;52.55
41800;BME280;27468;47.460;19.034;2023-04-15T11:29:28;99475.38;;;15.92;52.53
41800;BME280;27468;47.460;19.034;2023-04-15T11:32:04;99478.38;;;16.01;51.31
41800;BME280;27468;47.460;19.034;2023-04-15T11:34:31;99514.97;;;16.28;50.68
41800;BME280;27468;47.460;19.034;2023-04-15T11:36:57;99466.56;;;16.07;50.57
41800;BME280;27468;47.460;19.034;2023-04-15T11:39:22;99455.56;;;15.97;50.54
41800;BME280;27468;47.460;19.034;2023-04-15T11:41:48;99461.06;;;15.78;50.90
41800;BME280;27468;47.460;19.034;2023-04-15T11:44:17;99489.63;;;16.06;50.60
41800;BME280;27468;47.460;19.034;2023-04-15T11:46:43;99441.59;;;15.78;50.51
41800;BME280;27468;47.460;19.034;2023-04-15T11:49:08;99479.94;;;16.05;50.78
41800;BME280;27468;47.460;19.034;2023-04-15T11:51:34;99491.69;;;16.01;49.98
41800;BME280;27468;47.460;19.034;2023-04-15T11:54:00;99482.84;;;15.85;49.94
41800;BME280;27468;47.460;19.034;2023-04-15T11:56:25;99478.31;;;15.87;49.88
41800;BME280;27468;47.460;19.034;2023-04-15T11:58:53;99429.06;;;15.48;49.94
41800;BME280;27468;47.460;19.034;2023-04-15T12:01:30;99519.22;;;16.16;50.58
41800;BME280;27468;47.460;19.034;2023-04-15T12:03:56;99481.72;;;16.05;50.68
41800;BME280;27468;47.460;19.034;2023-04-15T12:06:24;99453.00;;;15.80;49.74
41800;BME280;27468;47.460;19.034;2023-04-15T12:13:54;99524.16;;;16.22;49.23
41800;BME280;27468;47.460;19.034;2023-04-15T12:16:21;99495.47;;;16.13;49.14
41800;BME280;27468;47.460;19.034;2023-04-15T12:18:51;99510.59;;;16.42;48.87
41800;BME280;27468;47.460;19.034;2023-04-15T12:21:20;99507.66;;;16.47;48.43
41800;BME280;27468;47.460;19.034;2023-04-15T12:23:52;99460.59;;;16.17;48.32
41800;BME280;27468;47.460;19.034;2023-04-15T12:26:25;99514.97;;;16.43;48.50
41800;BME280;27468;47.460;19.034;2023-04-15T12:28:55;99480.56;;;16.25;48.58
41800;BME280;27468;47.460;19.034;2023-04-15T12:31:21;99533.25;;;16.49;48.53
41800;BME280;27468;47.460;19.034;2023-04-15T12:33:47;99462.59;;;16.14;48.29
41800;BME280;27468;47.460;19.034;2023-04-15T12:36:14;99496.72;;;16.22;48.30
41800;BME280;27468;47.460;19.034;2023-04-15T12:38:39;99507.09;;;16.26;48.28
41800;BME280;27468;47.460;19.034;2023-04-15T12:41:05;99507.16;;;16.25;48.49
41800;BME280;27468;47.460;19.034;2023-04-15T12:43:30;99488.84;;;16.04;48.89
41800;BME280;27468;47.460;19.034;2023-04-15T12:45:56;99504.81;;;16.04;48.94
41800;BME280;27468;47.460;19.034;2023-04-15T12:48:22;99531.91;;;16.11;48.97
41800;BME280;27468;47.460;19.034;2023-04-15T12:50:47;99519.97;;;16.02;49.08
41800;BME280;27468;47.460;19.034;2023-04-15T12:53:12;99507.44;;;15.73;49.62
41800;BME280;27468;47.460;19.034;2023-04-15T12:55:38;99536.94;;;15.84;49.86
41800;BME280;27468;47.460;19.034;2023-04-15T12:58:03;99482.31;;;15.63;49.99
41800;BME280;27468;47.460;19.034;2023-04-15T13:00:29;99536.78;;;16.03;50.12